createdAt,value
2019-04-10T00:01:30.030Z,8.02
2019-04-10T00:04:00.792Z,8.18
2019-04-10T00:06:30.716Z,8.22
2019-04-10T00:09:00.929Z,8.19
2019-04-10T00:11:32.628Z,8.11
2019-04-10T00:14:02.964Z,8.04
2019-04-10T00:16:33.122Z,8.04
2019-04-10T00:19:04.483Z,8.09
2019-04-10T00:21:35.482Z,7.96
2019-04-10T00:24:06.040Z,7.91
2019-04-10T00:26:35.544Z,7.82
2019-04-10T00:29:05.765Z,7.80
2019-04-10T00:31:36.011Z,7.76
2019-04-10T00:34:05.823Z,7.62
2019-04-10T00:36:35.682Z,7.71
2019-04-10T00:39:07.233Z,7.79
2019-04-10T00:41:37.368Z,7.80
2019-04-10T00:44:07.802Z,7.68
2019-04-10T00:46:37.992Z,7.62
2019-04-10T00:49:07.998Z,7.62
2019-04-10T00:51:38.033Z,7.55
2019-04-10T00:54:08.065Z,7.55
2019-04-10T00:56:38.932Z,7.61
2019-04-10T00:59:10.216Z,7.53
2019-04-10T01:01:41.350Z,7.58
2019-04-10T01:04:12.364Z,7.44
2019-04-10T01:06:42.452Z,7.48
2019-04-10T01:09:13.206Z,7.62
2019-04-10T01:11:43.430Z,7.72
2019-04-10T01:14:13.721Z,7.67
2019-04-10T01:16:44.013Z,7.70
2019-04-10T01:19:13.966Z,7.83
2019-04-10T01:21:44.289Z,7.89
2019-04-10T01:24:14.307Z,7.92
2019-04-10T01:26:45.442Z,8.00
2019-04-10T01:29:15.538Z,7.85
2019-04-10T01:31:45.683Z,7.63
2019-04-10T01:34:15.607Z,7.61
2019-04-10T01:36:46.014Z,7.44
2019-04-10T01:39:17.964Z,7.43
2019-04-10T01:41:48.065Z,7.37
2019-04-10T01:44:18.214Z,7.31
2019-04-10T01:46:48.659Z,7.23
2019-04-10T01:49:19.630Z,7.25
2019-04-10T01:51:49.752Z,7.29
2019-04-10T01:54:19.700Z,7.28
2019-04-10T01:56:50.148Z,7.25
2019-04-10T01:59:21.546Z,7.31
2019-04-10T02:01:59.243Z,7.31
2019-04-10T02:04:29.256Z,7.17
2019-04-10T02:06:59.955Z,7.21
2019-04-10T02:09:29.772Z,7.17
2019-04-10T02:11:59.775Z,7.19
2019-04-10T02:14:30.023Z,7.05
2019-04-10T02:17:00.185Z,6.97
2019-04-10T02:19:30.265Z,7.16
2019-04-10T02:22:00.343Z,7.14
2019-04-10T02:24:31.316Z,6.95
2019-04-10T02:27:02.312Z,6.87
2019-04-10T02:29:35.660Z,6.81
2019-04-10T02:32:05.788Z,6.86
2019-04-10T02:34:37.014Z,6.69
2019-04-10T02:37:08.577Z,6.66
2019-04-10T02:39:44.726Z,6.58
2019-04-10T02:42:10.854Z,6.61
2019-04-10T02:44:41.636Z,6.68
2019-04-10T02:47:12.931Z,6.70
2019-04-10T02:49:44.631Z,6.71
2019-04-10T02:52:14.919Z,6.77
2019-04-10T02:54:46.005Z,6.73
2019-04-10T02:57:17.400Z,6.64
2019-04-10T02:59:48.872Z,6.55
2019-04-10T03:02:20.249Z,6.49
2019-04-10T03:04:50.957Z,6.53
2019-04-10T03:07:21.993Z,6.55
2019-04-10T03:10:02.317Z,6.62
2019-04-10T03:12:23.982Z,6.68
2019-04-10T03:14:54.968Z,6.67
2019-04-10T03:17:26.023Z,6.62
2019-04-10T03:19:56.169Z,6.59
2019-04-10T03:22:26.572Z,6.68
2019-04-10T03:24:57.543Z,6.77
2019-04-10T03:27:28.092Z,6.80
2019-04-10T03:29:57.439Z,6.84
2019-04-10T03:32:50.360Z,6.94
2019-04-10T03:35:20.728Z,7.09
2019-04-10T03:37:50.862Z,7.21
2019-04-10T03:40:21.666Z,7.25
2019-04-10T03:42:52.946Z,7.37
2019-04-10T03:45:24.116Z,7.42
2019-04-10T03:47:55.793Z,7.46
2019-04-10T03:50:25.849Z,7.57
2019-04-10T03:52:55.954Z,7.71
2019-04-10T03:55:27.158Z,7.84
2019-04-10T03:57:57.171Z,8.02
2019-04-10T04:00:27.881Z,8.22
2019-04-10T04:02:58.226Z,8.39
2019-04-10T04:05:28.820Z,8.62
2019-04-10T04:07:59.091Z,8.80
2019-04-10T04:10:29.091Z,8.98
2019-04-10T04:13:00.132Z,9.15
2019-04-10T04:15:30.407Z,9.32
2019-04-10T04:18:00.432Z,9.50
2019-04-10T04:20:30.701Z,9.65
2019-04-10T04:23:01.394Z,9.80
2019-04-10T04:25:30.979Z,9.91
2019-04-10T04:28:00.792Z,10.01
2019-04-10T04:30:31.996Z,10.10
2019-04-10T04:33:02.523Z,10.20
2019-04-10T04:35:32.630Z,10.26
2019-04-10T04:38:02.631Z,10.31
2019-04-10T04:40:33.564Z,10.40
2019-04-10T04:43:03.776Z,10.51
2019-04-10T04:45:33.805Z,10.59
2019-04-10T04:48:03.743Z,10.70
2019-04-10T04:50:34.220Z,10.84
2019-04-10T04:53:04.568Z,10.95
2019-04-10T04:55:37.380Z,11.05
2019-04-10T04:58:07.479Z,11.19
2019-04-10T05:00:37.658Z,11.33
2019-04-10T05:03:07.831Z,11.49
2019-04-10T05:05:37.794Z,11.52
2019-04-10T05:08:08.455Z,11.56
2019-04-10T05:10:38.368Z,11.68
2019-04-10T05:13:08.417Z,11.79
2019-04-10T05:15:38.344Z,11.90
2019-04-10T05:18:08.275Z,12.00
2019-04-10T05:20:45.387Z,12.11
2019-04-10T05:23:10.287Z,12.17
2019-04-10T05:25:41.404Z,12.35
2019-04-10T05:28:11.606Z,12.53
2019-04-10T05:30:41.536Z,12.76
2019-04-10T05:33:12.017Z,12.93
2019-04-10T05:35:41.903Z,13.16
2019-04-10T05:38:12.287Z,13.30
2019-04-10T05:40:42.306Z,13.39
2019-04-10T05:43:13.259Z,13.46
2019-04-10T05:45:43.492Z,13.59
2019-04-10T05:48:13.528Z,13.82
2019-04-10T05:50:53.072Z,14.01
2019-04-10T05:53:16.263Z,14.23
2019-04-10T05:55:47.281Z,14.41
2019-04-10T05:58:17.532Z,14.52
2019-04-10T06:00:47.611Z,14.69
2019-04-10T06:03:18.434Z,14.80
2019-04-10T06:05:48.709Z,14.98
2019-04-10T06:08:18.756Z,15.23
2019-04-10T06:10:49.790Z,15.26
2019-04-10T06:13:20.052Z,15.43
2019-04-10T06:15:50.908Z,15.75
2019-04-10T06:18:21.142Z,16.26
2019-04-10T06:20:50.984Z,16.37
2019-04-10T06:23:21.271Z,16.57
2019-04-10T06:25:51.341Z,16.82
2019-04-10T06:28:24.653Z,17.04
2019-04-10T06:30:54.529Z,17.71
2019-04-10T06:33:25.873Z,19.44
2019-04-10T06:35:57.416Z,22.81
2019-04-10T06:38:28.579Z,25.49
2019-04-10T06:40:59.720Z,27.74
2019-04-10T06:43:30.851Z,28.24
2019-04-10T06:46:01.025Z,28.36
2019-04-10T06:48:32.113Z,28.19
2019-04-10T06:51:02.207Z,28.72
2019-04-10T06:53:33.118Z,29.53
2019-04-10T06:56:04.887Z,30.51
2019-04-10T06:58:35.803Z,32.50
2019-04-10T07:01:06.355Z,33.97
2019-04-10T07:03:49.647Z,35.25
2019-04-10T07:06:15.608Z,36.50
2019-04-10T07:08:40.271Z,36.73
2019-04-10T07:11:12.907Z,37.70
2019-04-10T07:13:42.992Z,37.51
2019-04-10T07:16:12.965Z,37.02
2019-04-10T07:18:45.888Z,37.55
2019-04-10T07:21:14.690Z,37.99
2019-04-10T07:23:45.208Z,38.60
2019-04-10T07:26:21.768Z,38.81
2019-04-10T07:28:47.870Z,39.02
2019-04-10T07:31:20.029Z,38.50
2019-04-10T07:33:51.662Z,37.82
2019-04-10T07:36:20.921Z,37.59
2019-04-10T07:38:53.878Z,38.00
2019-04-10T07:41:25.648Z,38.10
2019-04-10T07:43:56.771Z,38.30
2019-04-10T07:46:26.263Z,38.57
2019-04-10T07:48:56.541Z,39.31
2019-04-10T07:51:27.642Z,39.99
2019-04-10T07:53:57.819Z,40.31
2019-04-10T07:56:27.863Z,40.40
2019-04-10T07:58:57.794Z,40.00
2019-04-10T08:01:28.036Z,39.98
2019-04-10T08:03:58.279Z,40.10
2019-04-10T08:06:28.223Z,39.90
2019-04-10T08:08:59.091Z,40.49
2019-04-10T08:11:29.626Z,40.66
2019-04-10T08:14:01.152Z,39.58
2019-04-10T08:16:31.287Z,40.66
2019-04-10T08:19:01.919Z,41.88
2019-04-10T08:21:32.941Z,43.06
2019-04-10T08:24:02.974Z,43.80
2019-04-10T08:26:32.923Z,43.13
2019-04-10T08:29:03.358Z,42.55
2019-04-10T08:31:33.388Z,42.10
2019-04-10T08:34:03.430Z,42.89
2019-04-10T08:36:33.265Z,43.56
2019-04-10T08:39:04.714Z,44.04
2019-04-10T08:41:35.159Z,44.54
2019-04-10T08:44:06.410Z,44.57
2019-04-10T08:46:36.474Z,44.81
2019-04-10T08:49:06.419Z,43.77
2019-04-10T08:51:36.392Z,42.04
2019-04-10T08:54:06.382Z,43.11
2019-04-10T08:56:36.560Z,44.73
2019-04-10T08:59:07.581Z,46.38
2019-04-10T09:01:37.714Z,47.04
2019-04-10T09:04:07.869Z,46.66
2019-04-10T09:06:37.904Z,46.17
2019-04-10T09:09:08.218Z,43.40
2019-04-10T09:11:38.592Z,40.91
2019-04-10T09:14:08.727Z,40.53
2019-04-10T09:16:38.760Z,42.24
2019-04-10T09:19:09.682Z,44.33
2019-04-10T09:21:39.888Z,45.58
2019-04-10T09:24:10.235Z,46.39
2019-04-10T09:26:40.356Z,46.92
2019-04-10T09:29:10.166Z,46.51
2019-04-10T09:31:40.101Z,44.79
2019-04-10T09:34:10.100Z,45.21
2019-04-10T09:36:41.734Z,45.67
2019-04-10T09:39:11.664Z,45.06
2019-04-10T09:41:41.859Z,43.23
2019-04-10T09:44:12.320Z,42.12
2019-04-10T09:46:42.889Z,41.75
2019-04-10T09:49:12.917Z,41.76
2019-04-10T09:51:42.765Z,41.48
2019-04-10T09:54:13.369Z,41.10
2019-04-10T09:56:44.208Z,38.05
2019-04-10T09:59:14.151Z,37.05
2019-04-10T10:01:44.467Z,35.08
2019-04-10T10:04:15.366Z,33.79
2019-04-10T10:06:45.433Z,33.80
2019-04-10T10:09:15.376Z,34.20
2019-04-10T10:11:45.302Z,33.14
2019-04-10T10:14:14.560Z,33.05
2019-04-10T10:16:44.388Z,34.18
2019-04-10T10:19:14.294Z,35.97
2019-04-10T10:21:44.906Z,37.63
2019-04-10T10:24:14.780Z,37.73
2019-04-10T10:26:46.119Z,35.64
2019-04-10T10:29:15.522Z,35.05
2019-04-10T10:31:46.473Z,35.31
2019-04-10T10:34:18.428Z,38.39
2019-04-10T10:36:50.645Z,40.14
2019-04-10T10:39:21.329Z,43.47
2019-04-10T10:41:52.396Z,46.44
2019-04-10T10:44:22.431Z,47.90
2019-04-10T10:46:52.668Z,48.54
2019-04-10T10:49:22.728Z,47.81
2019-04-10T10:51:53.320Z,43.60
2019-04-10T10:54:23.399Z,41.76
2019-04-10T10:56:53.435Z,41.69
2019-04-10T10:59:23.372Z,42.65
2019-04-10T11:01:53.844Z,43.54
2019-04-10T11:04:24.170Z,44.26
2019-04-10T11:06:59.950Z,43.93
2019-04-10T11:09:26.259Z,40.46
2019-04-10T11:11:56.220Z,38.87
2019-04-10T11:14:27.703Z,39.08
2019-04-10T11:16:57.818Z,41.86
2019-04-10T11:19:29.073Z,44.16
2019-04-10T11:21:59.332Z,48.46
2019-04-10T11:24:29.427Z,50.06
2019-04-10T11:27:00.065Z,50.95
2019-04-10T11:29:32.539Z,52.79
2019-04-10T11:32:06.756Z,52.85
2019-04-10T11:34:38.221Z,52.45
2019-04-10T11:37:23.414Z,52.53
2019-04-10T11:39:43.529Z,54.50
2019-04-10T11:42:12.200Z,54.36
2019-04-10T11:44:45.342Z,54.54
2019-04-10T11:47:14.900Z,52.55
2019-04-10T11:49:47.167Z,52.36
2019-04-10T11:52:24.425Z,52.32
2019-04-10T11:54:49.247Z,53.47
2019-04-10T11:57:20.436Z,50.62
2019-04-10T11:59:50.954Z,51.84
2019-04-10T12:02:24.713Z,52.00
2019-04-10T12:04:56.051Z,51.94
2019-04-10T12:07:54.966Z,52.21
2019-04-10T12:12:28.025Z,46.59
2019-04-10T12:14:59.732Z,47.32
2019-04-10T12:17:29.849Z,45.79
2019-04-10T12:20:00.543Z,44.46
2019-04-10T12:22:31.642Z,45.66
2019-04-10T12:25:02.835Z,40.56
2019-04-10T12:27:33.518Z,43.43
2019-04-10T12:30:04.845Z,48.32
2019-04-10T12:32:35.033Z,51.45
2019-04-10T12:35:06.952Z,43.15
2019-04-10T12:37:37.174Z,37.44
2019-04-10T12:40:09.755Z,34.16
2019-04-10T12:42:40.666Z,33.33
2019-04-10T12:45:11.450Z,33.18
2019-04-10T12:47:41.962Z,42.41
2019-04-10T12:50:12.359Z,39.72
2019-04-10T12:52:42.884Z,35.92
2019-04-10T12:55:14.877Z,33.12
2019-04-10T12:57:45.424Z,30.72
2019-04-10T13:00:18.740Z,29.30
2019-04-10T13:02:48.781Z,29.46
2019-04-10T13:05:18.927Z,29.27
2019-04-10T13:07:48.061Z,30.82
2019-04-10T13:10:18.336Z,30.15
2019-04-10T13:12:49.282Z,30.50
2019-04-10T13:15:19.361Z,30.84
2019-04-10T13:17:49.071Z,30.70
2019-04-10T13:20:19.883Z,30.06
2019-04-10T13:22:50.685Z,29.02
2019-04-10T13:25:21.859Z,28.36
2019-04-10T13:27:53.043Z,28.20
2019-04-10T13:30:22.985Z,28.61
2019-04-10T13:32:53.027Z,30.00
2019-04-10T13:35:24.126Z,33.94
2019-04-10T13:37:54.840Z,36.70
2019-04-10T13:40:25.749Z,37.76
2019-04-10T13:42:55.818Z,36.61
2019-04-10T13:45:25.162Z,35.56
2019-04-10T13:47:54.963Z,35.83
2019-04-10T13:50:24.348Z,35.30
2019-04-10T13:52:55.063Z,34.88
2019-04-10T13:55:26.293Z,34.29
2019-04-10T13:57:57.118Z,32.14
2019-04-10T14:00:41.080Z,30.12
2019-04-10T14:03:12.234Z,28.89
2019-04-10T14:05:43.282Z,27.51
2019-04-10T14:08:14.598Z,26.15
2019-04-10T14:10:44.726Z,25.38
2019-04-10T14:13:15.712Z,24.80
2019-04-10T14:15:46.482Z,24.49
2019-04-10T14:18:18.535Z,24.24
2019-04-10T14:20:49.593Z,24.10
2019-04-10T14:23:22.208Z,24.05
2019-04-10T14:25:53.985Z,23.89
2019-04-10T14:28:27.096Z,23.84
2019-04-10T14:30:59.980Z,23.52
2019-04-10T14:33:30.395Z,23.18
2019-04-10T14:35:59.985Z,22.54
2019-04-10T14:38:30.755Z,22.15
2019-04-10T14:41:01.167Z,21.78
2019-04-10T14:43:30.692Z,21.75
2019-04-10T14:46:00.690Z,21.72
2019-04-10T14:48:30.731Z,21.61
2019-04-10T14:51:00.791Z,21.25
2019-04-10T14:53:31.145Z,20.98
2019-04-10T14:56:00.463Z,20.94
2019-04-10T14:58:31.287Z,21.04
2019-04-10T15:01:02.803Z,21.03
2019-04-10T15:03:33.607Z,21.07
2019-04-10T15:06:04.992Z,20.98
2019-04-10T15:08:35.648Z,20.86
2019-04-10T15:11:04.976Z,20.85
2019-04-10T15:13:36.141Z,20.92
2019-04-10T15:16:07.137Z,21.04
2019-04-10T15:18:37.291Z,20.86
2019-04-10T15:21:07.352Z,20.88
2019-04-10T15:23:37.285Z,20.57
2019-04-10T15:26:08.021Z,20.32
2019-04-10T15:28:39.384Z,20.05
2019-04-10T15:31:09.546Z,19.90
2019-04-10T15:33:39.589Z,19.89
2019-04-10T15:36:09.518Z,19.75
2019-04-10T15:38:40.180Z,19.56
2019-04-10T15:41:10.598Z,19.55
2019-04-10T15:43:41.315Z,19.53
2019-04-10T15:46:11.402Z,19.46
2019-04-10T15:48:41.887Z,19.34
2019-04-10T15:51:12.043Z,19.30
2019-04-10T15:53:42.926Z,19.40
2019-04-10T15:56:13.800Z,19.36
2019-04-10T15:58:43.870Z,19.30
2019-04-10T16:01:15.973Z,19.37
2019-04-10T16:03:47.824Z,19.45
2019-04-10T16:06:17.835Z,19.43
2019-04-10T16:08:48.286Z,19.34
2019-04-10T16:11:32.236Z,19.20
2019-04-10T16:14:16.666Z,19.12
2019-04-10T16:16:42.274Z,19.03
2019-04-10T16:19:20.465Z,18.92
2019-04-10T16:21:52.116Z,18.90
2019-04-10T16:24:22.908Z,18.81
2019-04-10T16:26:53.711Z,18.74
2019-04-10T16:29:25.216Z,18.63
2019-04-10T16:31:56.509Z,18.42
2019-04-10T16:34:26.923Z,18.37
2019-04-10T16:36:57.717Z,18.25
2019-04-10T16:39:27.930Z,18.16
2019-04-10T16:42:00.037Z,18.17
2019-04-10T16:44:30.129Z,18.06
2019-04-10T16:47:00.058Z,17.91
2019-04-10T16:49:30.895Z,17.79
2019-04-10T16:52:00.943Z,17.62
2019-04-10T16:54:31.344Z,17.58
2019-04-10T16:57:02.462Z,17.45
2019-04-10T16:59:32.597Z,17.38
2019-04-10T17:02:03.727Z,17.36
2019-04-10T17:04:34.203Z,17.28
2019-04-10T17:07:04.134Z,17.38
2019-04-10T17:09:34.502Z,17.28
2019-04-10T17:12:06.290Z,17.13
2019-04-10T17:14:37.743Z,16.85
2019-04-10T17:17:08.360Z,16.76
2019-04-10T17:19:48.853Z,16.50
2019-04-10T17:22:11.046Z,16.19
2019-04-10T17:24:41.829Z,16.08
2019-04-10T17:27:13.110Z,16.06
2019-04-10T17:29:43.271Z,16.08
2019-04-10T17:32:13.272Z,16.10
2019-04-10T17:34:43.217Z,16.15
2019-04-10T17:37:14.391Z,16.16
2019-04-10T17:39:44.535Z,16.22
2019-04-10T17:42:14.584Z,16.04
2019-04-10T17:44:45.641Z,15.85
2019-04-10T17:47:16.599Z,15.85
2019-04-10T17:49:47.675Z,15.77
2019-04-10T17:52:18.686Z,15.85
2019-04-10T17:54:49.771Z,15.86
2019-04-10T17:57:19.705Z,15.91
2019-04-10T17:59:50.979Z,15.85
2019-04-10T18:02:21.424Z,15.88
2019-04-10T18:04:51.329Z,15.80
2019-04-10T18:07:24.462Z,15.61
2019-04-10T18:09:54.511Z,15.65
2019-04-10T18:12:24.539Z,15.64
2019-04-10T18:14:55.567Z,15.63
2019-04-10T18:17:26.931Z,15.60
2019-04-10T18:19:58.729Z,15.66
2019-04-10T18:22:28.880Z,15.71
2019-04-10T18:24:58.924Z,15.77
2019-04-10T18:27:30.032Z,15.85
2019-04-10T18:30:00.041Z,15.88
2019-04-10T18:32:30.047Z,15.88
2019-04-10T18:35:00.445Z,15.92
2019-04-10T18:37:31.027Z,15.86
2019-04-10T18:40:01.076Z,15.86
2019-04-10T18:42:32.915Z,15.80
2019-04-10T18:45:02.206Z,15.76
2019-04-10T18:47:34.714Z,15.73
2019-04-10T18:50:04.426Z,15.69
2019-04-10T18:52:35.098Z,15.68
2019-04-10T18:55:06.081Z,15.62
2019-04-10T18:57:36.038Z,15.62
2019-04-10T19:00:24.293Z,15.59
2019-04-10T19:02:55.849Z,15.54
2019-04-10T19:05:27.849Z,15.50
2019-04-10T19:07:58.735Z,15.45
2019-04-10T19:10:30.601Z,15.44
2019-04-10T19:13:01.381Z,15.37
2019-04-10T19:15:31.580Z,15.36
2019-04-10T19:18:03.592Z,15.38
2019-04-10T19:20:33.894Z,15.35
2019-04-10T19:23:04.419Z,15.28
2019-04-10T19:25:34.733Z,15.24
2019-04-10T19:28:06.642Z,15.27
2019-04-10T19:30:39.367Z,15.34
2019-04-10T19:33:10.512Z,15.33
2019-04-10T19:35:41.397Z,15.35
2019-04-10T19:38:13.408Z,15.33
2019-04-10T19:40:43.848Z,15.30
2019-04-10T19:43:14.040Z,15.33
2019-04-10T19:45:44.012Z,15.32
2019-04-10T19:48:15.078Z,15.29
2019-04-10T19:50:45.644Z,15.18
2019-04-10T19:53:15.157Z,15.23
2019-04-10T19:55:46.243Z,15.25
2019-04-10T19:58:16.304Z,15.23
2019-04-10T20:00:46.759Z,15.14
2019-04-10T20:03:17.922Z,15.07
2019-04-10T20:05:47.849Z,15.11
2019-04-10T20:08:17.931Z,15.09
2019-04-10T20:10:47.921Z,15.10
2019-04-10T20:13:18.708Z,14.96
2019-04-10T20:15:48.952Z,14.87
2019-04-10T20:18:19.148Z,14.86
2019-04-10T20:20:49.294Z,14.76
2019-04-10T20:23:19.543Z,14.76
2019-04-10T20:25:50.534Z,14.72
2019-04-10T20:28:20.661Z,14.64
2019-04-10T20:30:52.310Z,14.64
2019-04-10T20:33:22.909Z,14.49
2019-04-10T20:35:54.025Z,14.22
2019-04-10T20:38:25.248Z,14.15
2019-04-10T20:40:55.315Z,14.13
2019-04-10T20:43:28.112Z,14.17
2019-04-10T20:45:58.059Z,14.11
2019-04-10T20:48:28.683Z,14.08
2019-04-10T20:50:58.775Z,14.03
2019-04-10T20:53:28.783Z,13.89
2019-04-10T20:55:59.955Z,13.87
2019-04-10T20:58:29.982Z,13.82
2019-04-10T21:00:59.957Z,13.82
2019-04-10T21:03:30.255Z,13.75
2019-04-10T21:06:00.505Z,13.70
2019-04-10T21:08:30.732Z,13.74
2019-04-10T21:11:00.773Z,13.62
2019-04-10T21:13:31.833Z,13.63
2019-04-10T21:16:02.971Z,13.62
2019-04-10T21:18:33.515Z,13.72
2019-04-10T21:21:03.804Z,13.70
2019-04-10T21:23:33.798Z,13.68
2019-04-10T21:26:03.963Z,13.69
2019-04-10T21:28:34.749Z,13.65
2019-04-10T21:31:22.861Z,13.60
2019-04-10T21:34:11.999Z,13.60
2019-04-10T21:36:43.450Z,13.65
2019-04-10T21:39:13.816Z,13.63
2019-04-10T21:41:44.598Z,13.61
2019-04-10T21:44:16.035Z,13.66
2019-04-10T21:46:46.693Z,13.72
2019-04-10T21:49:16.844Z,13.68
2019-04-10T21:51:46.777Z,13.60
2019-04-10T21:54:16.818Z,13.61
2019-04-10T21:56:46.853Z,13.61
2019-04-10T21:59:16.786Z,13.61
2019-04-10T22:01:47.236Z,13.63
2019-04-10T22:04:18.868Z,13.54
2019-04-10T22:06:51.539Z,13.53
2019-04-10T22:09:26.422Z,13.49
2019-04-10T22:11:58.450Z,13.53
2019-04-10T22:14:28.423Z,13.55
2019-04-10T22:16:58.709Z,13.56
2019-04-10T22:19:28.948Z,13.53
2019-04-10T22:21:58.921Z,13.46
2019-04-10T22:24:29.847Z,13.43
2019-04-10T22:27:01.099Z,13.41
2019-04-10T22:29:31.218Z,13.40
2019-04-10T22:32:02.029Z,13.37
2019-04-10T22:34:34.247Z,13.32
2019-04-10T22:37:06.261Z,13.32
2019-04-10T22:39:36.508Z,13.30
2019-04-10T22:42:07.565Z,13.24
2019-04-10T22:44:42.549Z,13.28
2019-04-10T22:47:09.278Z,13.27
2019-04-10T22:49:39.371Z,13.23
2019-04-10T22:52:09.363Z,13.20
2019-04-10T22:54:39.601Z,13.21
2019-04-10T22:57:10.488Z,13.22
2019-04-10T22:59:40.480Z,13.15
2019-04-10T23:02:12.063Z,13.19
2019-04-10T23:04:42.828Z,13.19
2019-04-10T23:07:12.160Z,13.23
2019-04-10T23:09:42.070Z,13.21
2019-04-10T23:12:12.103Z,13.19
2019-04-10T23:14:42.787Z,13.13
2019-04-10T23:17:12.794Z,13.08
2019-04-10T23:19:42.826Z,13.08
2019-04-10T23:22:13.413Z,13.07
2019-04-10T23:24:43.498Z,12.97
2019-04-10T23:27:13.574Z,12.96
2019-04-10T23:29:44.340Z,12.96
2019-04-10T23:32:15.215Z,12.90
2019-04-10T23:34:45.306Z,12.81
2019-04-10T23:37:15.337Z,12.72
2019-04-10T23:39:46.145Z,12.60
2019-04-10T23:42:16.143Z,12.51
2019-04-10T23:44:46.063Z,12.53
2019-04-10T23:47:16.031Z,12.64
2019-04-10T23:49:46.036Z,12.72
2019-04-10T23:52:16.073Z,12.71
2019-04-10T23:54:46.104Z,12.76
2019-04-10T23:57:16.956Z,12.77
2019-04-10T23:59:47.014Z,12.84
